createdAt,value
2022-08-23T00:00:03.887Z,0.00
2022-08-23T00:01:02.501Z,0.00
2022-08-23T00:02:01.488Z,0.00
2022-08-23T00:03:01.542Z,0.00
2022-08-23T00:04:01.457Z,0.00
2022-08-23T00:05:07.590Z,0.00
2022-08-23T00:06:02.451Z,0.00
2022-08-23T00:07:01.422Z,0.00
2022-08-23T00:08:01.637Z,0.00
2022-08-23T00:09:01.399Z,0.00
2022-08-23T00:10:01.375Z,0.00
2022-08-23T00:11:01.386Z,0.00
2022-08-23T00:12:01.371Z,0.00
2022-08-23T00:13:01.344Z,0.00
2022-08-23T00:14:01.325Z,0.00
2022-08-23T00:15:01.330Z,0.00
2022-08-23T00:16:01.295Z,0.00
2022-08-23T00:17:01.307Z,0.00
2022-08-23T00:18:01.663Z,0.00
2022-08-23T00:19:01.257Z,0.00
2022-08-23T00:20:01.262Z,0.00
2022-08-23T00:21:01.238Z,0.00
2022-08-23T00:22:01.219Z,0.00
2022-08-23T00:23:01.222Z,0.00
2022-08-23T00:24:01.308Z,0.00
2022-08-23T00:25:01.197Z,0.00
2022-08-23T00:26:01.182Z,0.00
2022-08-23T00:27:01.160Z,0.00
2022-08-23T00:28:01.270Z,0.00
2022-08-23T00:29:01.144Z,0.00
2022-08-23T00:30:01.158Z,0.00
2022-08-23T00:31:01.111Z,0.00
2022-08-23T00:32:01.104Z,0.00
2022-08-23T00:33:01.120Z,0.00
2022-08-23T00:34:01.062Z,0.00
2022-08-23T00:35:01.066Z,0.00
2022-08-23T00:36:01.035Z,0.00
2022-08-23T00:37:01.037Z,0.00
2022-08-23T00:38:32.960Z,0.00
2022-08-23T00:39:01.995Z,0.00
2022-08-23T00:40:01.051Z,0.00
2022-08-23T00:41:01.083Z,0.00
2022-08-23T00:42:00.955Z,0.00
2022-08-23T00:43:00.968Z,0.00
2022-08-23T00:44:00.942Z,0.00
2022-08-23T00:45:00.925Z,0.00
2022-08-23T00:46:00.907Z,0.00
2022-08-23T00:47:00.911Z,0.00
2022-08-23T00:48:01.089Z,0.00
2022-08-23T00:49:00.900Z,0.00
2022-08-23T00:50:00.874Z,0.00
2022-08-23T00:51:00.847Z,0.00
2022-08-23T00:52:00.842Z,0.00
2022-08-23T00:53:00.818Z,0.00
2022-08-23T00:54:00.800Z,0.00
2022-08-23T00:55:00.804Z,0.00
2022-08-23T00:56:00.771Z,0.00
2022-08-23T00:57:00.779Z,0.00
2022-08-23T00:58:00.860Z,0.00
2022-08-23T00:59:00.743Z,0.00
2022-08-23T01:00:00.736Z,0.00
2022-08-23T01:01:00.713Z,0.00
2022-08-23T01:02:00.930Z,0.00
2022-08-23T01:03:00.698Z,0.00
2022-08-23T01:04:04.202Z,0.00
2022-08-23T01:05:00.675Z,0.00
2022-08-23T01:06:00.657Z,0.00
2022-08-23T01:07:00.635Z,0.00
2022-08-23T01:08:00.985Z,0.00
2022-08-23T01:09:00.605Z,0.00
2022-08-23T01:10:00.587Z,0.00
2022-08-23T01:11:00.599Z,0.00
2022-08-23T01:12:00.557Z,0.00
2022-08-23T01:13:00.578Z,0.00
2022-08-23T01:14:00.582Z,0.00
2022-08-23T01:15:00.532Z,0.00
2022-08-23T01:16:00.508Z,0.00
2022-08-23T01:17:00.513Z,0.00
2022-08-23T01:18:00.601Z,0.00
2022-08-23T01:19:00.478Z,0.00
2022-08-23T01:20:00.503Z,0.00
2022-08-23T01:21:00.449Z,0.00
2022-08-23T01:22:00.430Z,0.00
2022-08-23T01:23:00.435Z,0.00
2022-08-23T01:24:00.402Z,0.00
2022-08-23T01:25:07.438Z,0.00
2022-08-23T01:26:01.394Z,0.00
2022-08-23T01:27:00.372Z,0.00
2022-08-23T01:28:00.546Z,0.00
2022-08-23T01:29:00.342Z,0.00
2022-08-23T01:30:00.324Z,0.00
2022-08-23T01:31:00.335Z,0.00
2022-08-23T01:32:00.308Z,0.00
2022-08-23T01:33:00.285Z,0.00
2022-08-23T01:34:00.267Z,0.00
2022-08-23T01:35:00.280Z,0.00
2022-08-23T01:36:00.256Z,0.00
2022-08-23T01:37:00.249Z,0.00
2022-08-23T01:38:00.349Z,0.00
2022-08-23T01:39:00.206Z,0.00
2022-08-23T01:40:00.326Z,0.00
2022-08-23T01:41:00.215Z,0.00
2022-08-23T01:42:00.168Z,0.00
2022-08-23T01:43:01.171Z,0.00
2022-08-23T01:44:00.139Z,0.00
2022-08-23T01:45:00.142Z,0.00
2022-08-23T01:46:00.122Z,0.00
2022-08-23T01:47:00.209Z,0.00
2022-08-23T01:48:00.207Z,0.00
2022-08-23T01:49:00.092Z,0.00
2022-08-23T01:50:00.068Z,0.00
2022-08-23T01:51:00.048Z,0.00
2022-08-23T01:52:00.046Z,0.00
2022-08-23T01:53:00.379Z,0.00
2022-08-23T01:54:00.002Z,0.00
2022-08-23T01:55:00.007Z,0.00
2022-08-23T01:55:59.973Z,0.00
2022-08-23T01:56:59.978Z,0.00
2022-08-23T01:57:59.967Z,0.00
2022-08-23T01:58:59.960Z,0.00
2022-08-23T01:59:59.938Z,0.00
2022-08-23T02:00:59.915Z,0.00
2022-08-23T02:01:59.952Z,0.00
2022-08-23T02:03:00.067Z,0.00
2022-08-23T02:04:04.526Z,0.00
2022-08-23T02:05:00.880Z,0.00
2022-08-23T02:05:59.853Z,0.00
2022-08-23T02:06:59.835Z,0.00
2022-08-23T02:07:59.970Z,0.00
2022-08-23T02:08:59.812Z,0.00
2022-08-23T02:09:59.788Z,0.00
2022-08-23T02:10:59.793Z,0.00
2022-08-23T02:11:59.759Z,0.00
2022-08-23T02:12:59.883Z,0.00
2022-08-23T02:13:59.754Z,0.00
2022-08-23T02:14:59.732Z,0.00
2022-08-23T02:15:59.724Z,0.00
2022-08-23T02:17:04.368Z,0.00
2022-08-23T02:18:00.985Z,0.00
2022-08-23T02:18:59.694Z,0.00
2022-08-23T02:19:59.675Z,0.00
2022-08-23T02:20:59.670Z,0.00
2022-08-23T02:21:59.634Z,0.00
2022-08-23T02:22:59.714Z,0.00
2022-08-23T02:23:59.625Z,0.00
2022-08-23T02:24:59.616Z,0.00
2022-08-23T02:25:59.588Z,0.00
2022-08-23T02:26:59.567Z,0.00
2022-08-23T02:27:59.567Z,0.00
2022-08-23T02:28:59.545Z,0.00
2022-08-23T02:29:59.636Z,0.00
2022-08-23T02:30:59.530Z,0.00
2022-08-23T02:31:59.848Z,0.00
2022-08-23T02:32:59.593Z,0.00
2022-08-23T02:33:59.483Z,0.00
2022-08-23T02:35:04.653Z,0.00
2022-08-23T02:36:00.451Z,0.00
2022-08-23T02:36:59.454Z,0.00
2022-08-23T02:37:59.555Z,0.00
2022-08-23T02:38:59.410Z,0.00
2022-08-23T02:39:59.490Z,0.00
2022-08-23T02:41:00.771Z,0.00
2022-08-23T02:41:59.361Z,0.00
2022-08-23T02:42:59.367Z,0.00
2022-08-23T02:43:59.342Z,0.00
2022-08-23T02:44:59.348Z,0.00
2022-08-23T02:45:59.436Z,0.00
2022-08-23T02:46:59.354Z,0.00
2022-08-23T02:47:59.402Z,0.00
2022-08-23T02:48:59.275Z,0.00
2022-08-23T02:49:59.255Z,0.00
2022-08-23T02:50:59.266Z,0.00
2022-08-23T02:51:59.268Z,0.00
2022-08-23T02:52:59.225Z,0.00
2022-08-23T02:53:59.205Z,0.00
2022-08-23T02:54:59.213Z,0.00
2022-08-23T02:55:59.177Z,0.00
2022-08-23T02:56:59.183Z,0.00
2022-08-23T02:57:59.283Z,0.00
2022-08-23T02:58:59.138Z,0.00
2022-08-23T02:59:59.133Z,0.00
2022-08-23T03:00:59.118Z,0.00
2022-08-23T03:01:59.151Z,0.00
2022-08-23T03:02:59.212Z,0.00
2022-08-23T03:03:59.069Z,0.00
2022-08-23T03:04:59.073Z,0.00
2022-08-23T03:06:25.048Z,0.00
2022-08-23T03:07:00.031Z,0.00
2022-08-23T03:07:59.245Z,0.00
2022-08-23T03:08:59.125Z,0.00
2022-08-23T03:09:59.013Z,0.00
2022-08-23T03:10:58.973Z,0.00
2022-08-23T03:11:58.985Z,0.00
2022-08-23T03:12:58.953Z,0.00
2022-08-23T03:13:58.949Z,0.00
2022-08-23T03:14:58.937Z,0.00
2022-08-23T03:15:58.915Z,0.00
2022-08-23T03:16:58.908Z,0.00
2022-08-23T03:17:58.907Z,0.00
2022-08-23T03:18:58.875Z,0.00
2022-08-23T03:19:58.909Z,0.00
2022-08-23T03:20:58.852Z,0.00
2022-08-23T03:21:58.842Z,0.00
2022-08-23T03:22:58.830Z,0.00
2022-08-23T03:23:58.823Z,0.00
2022-08-23T03:24:58.788Z,0.00
2022-08-23T03:25:58.898Z,0.00
2022-08-23T03:26:58.773Z,0.00
2022-08-23T03:27:58.775Z,0.00
2022-08-23T03:28:58.751Z,0.00
2022-08-23T03:29:58.743Z,0.00
2022-08-23T03:30:58.709Z,0.00
2022-08-23T03:31:58.744Z,0.00
2022-08-23T03:32:58.680Z,0.00
2022-08-23T03:33:58.670Z,0.00
2022-08-23T03:34:58.665Z,0.00
2022-08-23T03:35:58.644Z,0.00
2022-08-23T03:36:58.645Z,0.00
2022-08-23T03:37:58.636Z,0.00
2022-08-23T03:38:58.602Z,0.00
2022-08-23T03:39:58.638Z,0.00
2022-08-23T03:40:58.587Z,0.00
2022-08-23T03:41:58.578Z,0.00
2022-08-23T03:42:58.675Z,0.00
2022-08-23T03:43:58.560Z,0.00
2022-08-23T03:45:02.454Z,1.00
2022-08-23T03:45:58.516Z,1.00
2022-08-23T03:46:58.509Z,1.00
2022-08-23T03:47:58.490Z,1.00
2022-08-23T03:48:58.512Z,0.00
2022-08-23T03:49:58.472Z,0.00
2022-08-23T03:50:58.438Z,2.00
2022-08-23T03:51:58.451Z,2.00
2022-08-23T03:52:58.415Z,4.00
2022-08-23T03:53:58.409Z,4.00
2022-08-23T03:54:58.404Z,4.00
2022-08-23T03:55:58.393Z,4.00
2022-08-23T03:56:58.359Z,7.00
2022-08-23T03:57:58.402Z,6.00
2022-08-23T03:58:58.347Z,5.00
2022-08-23T03:59:58.330Z,13.00
2022-08-23T04:00:58.323Z,15.00
2022-08-23T04:01:58.432Z,18.00
2022-08-23T04:02:58.282Z,14.00
2022-08-23T04:03:58.286Z,26.00
2022-08-23T04:04:58.284Z,31.00
2022-08-23T04:05:58.242Z,37.00
2022-08-23T04:06:58.238Z,36.00
2022-08-23T04:07:58.305Z,45.00
2022-08-23T04:08:58.217Z,42.00
2022-08-23T04:09:58.206Z,59.00
2022-08-23T04:10:58.175Z,75.00
2022-08-23T04:11:58.179Z,69.00
2022-08-23T04:12:58.155Z,95.00
2022-08-23T04:13:58.139Z,109.00
2022-08-23T04:14:58.131Z,118.00
2022-08-23T04:15:58.251Z,134.00
2022-08-23T04:16:58.101Z,153.00
2022-08-23T04:17:58.092Z,169.00
2022-08-23T04:18:58.068Z,196.00
2022-08-23T04:19:58.070Z,214.00
2022-08-23T04:20:58.039Z,232.00
2022-08-23T04:21:58.139Z,269.00
2022-08-23T04:22:58.022Z,277.00
2022-08-23T04:23:58.000Z,306.00
2022-08-23T04:24:57.995Z,323.00
2022-08-23T04:25:57.991Z,356.00
2022-08-23T04:26:57.952Z,383.00
2022-08-23T04:27:57.980Z,412.00
2022-08-23T04:28:57.944Z,434.00
2022-08-23T04:29:57.936Z,459.00
2022-08-23T04:30:57.906Z,485.00
2022-08-23T04:31:57.907Z,512.00
2022-08-23T04:32:57.912Z,544.00
2022-08-23T04:33:57.865Z,569.00
2022-08-23T04:34:57.857Z,598.00
2022-08-23T04:35:57.842Z,624.00
2022-08-23T04:36:57.840Z,649.00
2022-08-23T04:37:57.867Z,679.00
2022-08-23T04:38:57.828Z,709.00
2022-08-23T04:39:57.828Z,748.00
2022-08-23T04:40:57.766Z,786.00
2022-08-23T04:41:57.757Z,826.00
2022-08-23T04:42:57.752Z,868.00
2022-08-23T04:43:57.749Z,903.00
2022-08-23T04:44:57.718Z,938.00
2022-08-23T04:45:57.710Z,965.00
2022-08-23T04:46:57.702Z,995.00
2022-08-23T04:47:57.727Z,1016.00
2022-08-23T04:48:57.673Z,1036.00
2022-08-23T04:49:57.782Z,1053.00
2022-08-23T04:50:57.631Z,1072.00
2022-08-23T04:51:57.643Z,1097.00
2022-08-23T04:52:57.611Z,1117.00
2022-08-23T04:53:57.599Z,1142.00
2022-08-23T04:54:57.594Z,1168.00
2022-08-23T04:55:57.681Z,1195.00
2022-08-23T04:56:57.567Z,1224.00
2022-08-23T04:57:57.575Z,1247.00
2022-08-23T04:58:57.523Z,1265.00
2022-08-23T04:59:57.522Z,1279.00
2022-08-23T05:00:57.546Z,1290.00
2022-08-23T05:01:57.537Z,1307.00
2022-08-23T05:02:57.474Z,1330.00
2022-08-23T05:03:57.484Z,1356.00
2022-08-23T05:04:57.445Z,1368.00
2022-08-23T05:05:57.435Z,1378.00
2022-08-23T05:06:57.430Z,1395.00
2022-08-23T05:07:57.444Z,1420.00
2022-08-23T05:08:57.400Z,1435.00
2022-08-23T05:09:57.399Z,1458.00
2022-08-23T05:10:57.366Z,1481.00
2022-08-23T05:11:57.372Z,1503.00
2022-08-23T05:12:57.339Z,1522.00
2022-08-23T05:13:57.329Z,1544.00
2022-08-23T05:14:57.322Z,1570.00
2022-08-23T05:15:57.299Z,1595.00
2022-08-23T05:16:57.293Z,1621.00
2022-08-23T05:17:57.397Z,1646.00
2022-08-23T05:18:57.260Z,1671.00
2022-08-23T05:19:57.262Z,1697.00
2022-08-23T05:20:57.231Z,1723.00
2022-08-23T05:21:57.467Z,1748.00
2022-08-23T05:22:57.215Z,1774.00
2022-08-23T05:23:57.302Z,1797.00
2022-08-23T05:24:57.186Z,1826.00
2022-08-23T05:25:57.186Z,1864.00
2022-08-23T05:26:57.143Z,1890.00
2022-08-23T05:27:57.216Z,1932.00
2022-08-23T05:28:57.125Z,1974.00
2022-08-23T05:29:57.138Z,2020.00
2022-08-23T05:30:57.308Z,2072.00
2022-08-23T05:31:57.099Z,2119.00
2022-08-23T05:32:57.065Z,2171.00
2022-08-23T05:33:57.056Z,2217.00
2022-08-23T05:34:57.050Z,2265.00
2022-08-23T05:35:57.037Z,2311.00
2022-08-23T05:36:57.032Z,2361.00
2022-08-23T05:37:57.089Z,2403.00
2022-08-23T05:38:56.987Z,2449.00
2022-08-23T05:39:57.004Z,2486.00
2022-08-23T05:40:56.988Z,2529.00
2022-08-23T05:41:56.949Z,2560.00
2022-08-23T05:42:56.943Z,2595.00
2022-08-23T05:43:56.926Z,2691.00
2022-08-23T05:44:56.921Z,2886.00
2022-08-23T05:45:56.913Z,3033.00
2022-08-23T05:46:56.990Z,3060.00
2022-08-23T05:47:56.871Z,3206.00
2022-08-23T05:48:56.865Z,3253.00
2022-08-23T05:49:56.858Z,3287.00
2022-08-23T05:50:56.821Z,3337.00
2022-08-23T05:51:56.827Z,3374.00
2022-08-23T05:52:56.833Z,3413.00
2022-08-23T05:53:56.793Z,3453.00
2022-08-23T05:54:56.787Z,3494.00
2022-08-23T05:55:56.765Z,3529.00
2022-08-23T05:56:56.766Z,3569.00
2022-08-23T05:57:56.748Z,3615.00
2022-08-23T05:58:59.862Z,3653.00
2022-08-23T05:59:56.727Z,3694.00
2022-08-23T06:00:56.727Z,3729.00
2022-08-23T06:01:56.676Z,3740.00
2022-08-23T06:02:56.678Z,3502.00
2022-08-23T06:03:56.789Z,3428.00
2022-08-23T06:04:57.599Z,3737.00
2022-08-23T06:05:56.629Z,3904.00
2022-08-23T06:06:56.622Z,3936.00
2022-08-23T06:07:56.598Z,3999.00
2022-08-23T06:08:56.599Z,4037.00
2022-08-23T06:09:56.701Z,4058.00
2022-08-23T06:10:56.559Z,4104.00
2022-08-23T06:11:56.572Z,4141.00
2022-08-23T06:12:56.530Z,4183.00
2022-08-23T06:13:56.549Z,4225.00
2022-08-23T06:14:56.515Z,4278.00
2022-08-23T06:15:56.618Z,4323.00
2022-08-23T06:16:56.625Z,4379.00
2022-08-23T06:17:56.475Z,4422.00
2022-08-23T06:18:56.443Z,4481.00
2022-08-23T06:19:56.455Z,4513.00
2022-08-23T06:20:56.423Z,4562.00
2022-08-23T06:21:56.413Z,4601.00
2022-08-23T06:22:56.407Z,4650.00
2022-08-23T06:23:56.386Z,4682.00
2022-08-23T06:24:56.387Z,4736.00
2022-08-23T06:25:56.369Z,4785.00
2022-08-23T06:26:56.355Z,4828.00
2022-08-23T06:27:56.470Z,4887.00
2022-08-23T06:28:56.355Z,4906.00
2022-08-23T06:29:56.306Z,4941.00
2022-08-23T06:30:56.346Z,4987.00
2022-08-23T06:31:56.287Z,5030.00
2022-08-23T06:32:56.349Z,5078.00
2022-08-23T06:33:56.304Z,5120.00
2022-08-23T06:35:32.894Z,5181.00
2022-08-23T06:35:57.219Z,5249.00
2022-08-23T06:36:56.242Z,5297.00
2022-08-23T06:37:56.240Z,5374.00
2022-08-23T06:38:56.180Z,5455.00
2022-08-23T06:39:56.196Z,5549.00
2022-08-23T06:40:56.160Z,5667.00
2022-08-23T06:41:56.141Z,5779.00
2022-08-23T06:42:56.147Z,5910.00
2022-08-23T06:43:56.121Z,6067.00
2022-08-23T06:44:56.125Z,6224.00
2022-08-23T06:45:58.233Z,6380.00
2022-08-23T06:46:56.103Z,6525.00
2022-08-23T06:47:56.241Z,6653.00
2022-08-23T06:48:56.045Z,6760.00
2022-08-23T06:49:58.369Z,6877.00
2022-08-23T06:50:56.040Z,6998.00
2022-08-23T06:51:56.028Z,7135.00
2022-08-23T06:52:55.995Z,7305.00
2022-08-23T06:53:55.986Z,7508.00
2022-08-23T06:54:55.979Z,7712.00
2022-08-23T06:55:55.958Z,7855.00
2022-08-23T06:56:55.958Z,7952.00
2022-08-23T06:57:55.950Z,7973.00
2022-08-23T06:58:55.917Z,7983.00
2022-08-23T06:59:55.922Z,7871.00
2022-08-23T07:00:57.577Z,7758.00
2022-08-23T07:01:55.974Z,7520.00
2022-08-23T07:02:55.965Z,7554.00
2022-08-23T07:03:55.961Z,7499.00
2022-08-23T07:04:55.899Z,7363.00
2022-08-23T07:05:55.842Z,6936.00
2022-08-23T07:06:55.810Z,6934.00
2022-08-23T07:07:55.801Z,6978.00
2022-08-23T07:08:55.795Z,6994.00
2022-08-23T07:09:55.895Z,6979.00
2022-08-23T07:10:55.752Z,6984.00
2022-08-23T07:11:55.763Z,7394.00
2022-08-23T07:12:55.835Z,6949.00
2022-08-23T07:13:55.722Z,6958.00
2022-08-23T07:14:55.708Z,7009.00
2022-08-23T07:15:55.749Z,7194.00
2022-08-23T07:16:55.689Z,7061.00
2022-08-23T07:17:55.679Z,7009.00
2022-08-23T07:18:55.662Z,6987.00
2022-08-23T07:19:55.658Z,6956.00
2022-08-23T07:20:55.657Z,6962.00
2022-08-23T07:21:55.618Z,6693.00
2022-08-23T07:22:55.652Z,6489.00
2022-08-23T07:23:55.603Z,6338.00
2022-08-23T07:24:55.579Z,6208.00
2022-08-23T07:25:55.582Z,6602.00
2022-08-23T07:26:55.597Z,6869.00
2022-08-23T07:27:55.569Z,6950.00
2022-08-23T07:28:55.551Z,6824.00
2022-08-23T07:29:55.525Z,6709.00
2022-08-23T07:30:55.501Z,6758.00
2022-08-23T07:31:55.523Z,6749.00
2022-08-23T07:32:55.500Z,6752.00
2022-08-23T07:33:55.452Z,6715.00
2022-08-23T07:34:55.456Z,6683.00
2022-08-23T07:35:55.423Z,6737.00
2022-08-23T07:36:55.435Z,6749.00
2022-08-23T07:37:55.488Z,6820.00
2022-08-23T07:38:55.393Z,6810.00
2022-08-23T07:39:57.420Z,6872.00
2022-08-23T07:40:55.799Z,6864.00
2022-08-23T07:41:55.359Z,6827.00
2022-08-23T07:42:55.355Z,6822.00
2022-08-23T07:43:55.339Z,6747.00
2022-08-23T07:44:55.315Z,6777.00
2022-08-23T07:45:55.296Z,6838.00
2022-08-23T07:46:55.364Z,6843.00
2022-08-23T07:47:55.267Z,6884.00
2022-08-23T07:48:55.349Z,6911.00
2022-08-23T07:49:55.254Z,6923.00
2022-08-23T07:50:57.932Z,6879.00
2022-08-23T07:51:55.286Z,6886.00
2022-08-23T07:52:55.209Z,6828.00
2022-08-23T07:53:55.198Z,6819.00
2022-08-23T07:54:55.234Z,6815.00
2022-08-23T07:55:55.174Z,6934.00
2022-08-23T07:56:55.151Z,6936.00
2022-08-23T07:57:55.135Z,6954.00
2022-08-23T07:58:55.146Z,6001.00
2022-08-23T07:59:55.111Z,6391.00
2022-08-23T08:00:55.124Z,6593.00
2022-08-23T08:01:55.142Z,6937.00
2022-08-23T08:02:55.111Z,6955.00
2022-08-23T08:03:55.088Z,7018.00
2022-08-23T08:04:55.046Z,7059.00
2022-08-23T08:05:55.155Z,7119.00
2022-08-23T08:07:17.258Z,7160.00
2022-08-23T08:07:56.077Z,7192.00
2022-08-23T08:08:55.009Z,7221.00
2022-08-23T08:09:55.000Z,7206.00
2022-08-23T08:10:54.990Z,7240.00
2022-08-23T08:11:54.956Z,7277.00
2022-08-23T08:12:54.960Z,7302.00
2022-08-23T08:13:54.942Z,7346.00
2022-08-23T08:14:54.920Z,7363.00
2022-08-23T08:15:54.937Z,7395.00
2022-08-23T08:16:54.892Z,7414.00
2022-08-23T08:17:54.871Z,7493.00
2022-08-23T08:18:54.875Z,7578.00
2022-08-23T08:19:54.843Z,7660.00
2022-08-23T08:20:54.845Z,7760.00
2022-08-23T08:21:54.946Z,7838.00
2022-08-23T08:22:58.512Z,7933.00
2022-08-23T08:23:54.806Z,8001.00
2022-08-23T08:24:54.792Z,8088.00
2022-08-23T08:25:54.773Z,8118.00
2022-08-23T08:26:54.777Z,8113.00
2022-08-23T08:27:54.744Z,8126.00
2022-08-23T08:28:54.747Z,8195.00
2022-08-23T08:29:54.720Z,8208.00
2022-08-23T08:30:54.731Z,8235.00
2022-08-23T08:31:54.720Z,8269.00
2022-08-23T08:32:54.708Z,8328.00
2022-08-23T08:33:54.659Z,8407.00
2022-08-23T08:34:54.671Z,8445.00
2022-08-23T08:35:59.342Z,8403.00
2022-08-23T08:36:56.221Z,8437.00
2022-08-23T08:37:54.623Z,8444.00
2022-08-23T08:38:58.790Z,8444.00
2022-08-23T08:39:55.641Z,8515.00
2022-08-23T08:40:54.572Z,8562.00
2022-08-23T08:42:04.087Z,8606.00
2022-08-23T08:42:55.615Z,8636.00
2022-08-23T08:43:54.545Z,8638.00
2022-08-23T08:44:54.531Z,8651.00
2022-08-23T08:45:58.617Z,8620.00
2022-08-23T08:46:54.519Z,8629.00
2022-08-23T08:47:54.480Z,8640.00
2022-08-23T08:48:54.495Z,8732.00
2022-08-23T08:49:54.578Z,8779.00
2022-08-23T08:50:54.455Z,8843.00
2022-08-23T08:51:54.439Z,8837.00
2022-08-23T08:52:54.428Z,8835.00
2022-08-23T08:53:54.397Z,8786.00
2022-08-23T08:54:55.768Z,8727.00
2022-08-23T08:55:54.497Z,8696.00
2022-08-23T08:56:54.382Z,8619.00
2022-08-23T08:57:54.362Z,8591.00
2022-08-23T08:58:54.338Z,8509.00
2022-08-23T08:59:54.330Z,8434.00
2022-08-23T09:00:56.823Z,8382.00
2022-08-23T09:01:54.358Z,8379.00
2022-08-23T09:02:54.359Z,8366.00
2022-08-23T09:03:54.310Z,8298.00
2022-08-23T09:04:54.258Z,8256.00
2022-08-23T09:05:54.259Z,8275.00
2022-08-23T09:06:54.274Z,8370.00
2022-08-23T09:07:54.217Z,8436.00
2022-08-23T09:08:54.216Z,8496.00
2022-08-23T09:09:54.211Z,8576.00
2022-08-23T09:10:54.182Z,8675.00
2022-08-23T09:11:54.198Z,8828.00
2022-08-23T09:12:54.155Z,8939.00
2022-08-23T09:13:54.135Z,9050.00
2022-08-23T09:14:54.144Z,9256.00
2022-08-23T09:15:54.152Z,9442.00
2022-08-23T09:16:54.132Z,9668.00
2022-08-23T09:17:54.107Z,9796.00
2022-08-23T09:18:54.092Z,9921.00
2022-08-23T09:19:54.071Z,9974.00
2022-08-23T09:20:54.061Z,10083.00
2022-08-23T09:21:54.049Z,10187.00
2022-08-23T09:22:54.020Z,10252.00
2022-08-23T09:24:00.564Z,10307.00
2022-08-23T09:24:54.990Z,10203.00
2022-08-23T09:25:53.989Z,10075.00
2022-08-23T09:26:53.983Z,9841.00
2022-08-23T09:27:53.952Z,9607.00
2022-08-23T09:28:53.963Z,9602.00
2022-08-23T09:29:53.936Z,9516.00
2022-08-23T09:30:53.937Z,9335.00
2022-08-23T09:31:53.916Z,9343.00
2022-08-23T09:32:53.892Z,9208.00
2022-08-23T09:33:53.874Z,9012.00
2022-08-23T09:34:53.877Z,9053.00
2022-08-23T09:35:53.852Z,8973.00
2022-08-23T09:36:53.859Z,8954.00
2022-08-23T09:37:53.843Z,8948.00
2022-08-23T09:38:53.828Z,8875.00
2022-08-23T09:39:53.937Z,8942.00
2022-08-23T09:40:53.786Z,8846.00
2022-08-23T09:41:53.774Z,8819.00
2022-08-23T09:42:53.781Z,8676.00
2022-08-23T09:43:53.754Z,8734.00
2022-08-23T09:44:53.751Z,8810.00
2022-08-23T09:45:53.743Z,8853.00
2022-08-23T09:46:53.709Z,8899.00
2022-08-23T09:47:53.701Z,8957.00
2022-08-23T09:48:53.694Z,8940.00
2022-08-23T09:49:53.695Z,8939.00
2022-08-23T09:50:53.664Z,8906.00
2022-08-23T09:51:54.257Z,8867.00
2022-08-23T09:52:53.654Z,8864.00
2022-08-23T09:53:53.623Z,8971.00
2022-08-23T09:54:55.827Z,9019.00
2022-08-23T09:55:53.604Z,9033.00
2022-08-23T09:56:53.598Z,8956.00
2022-08-23T09:57:53.579Z,8935.00
2022-08-23T09:58:53.557Z,8946.00
2022-08-23T09:59:53.557Z,8943.00
2022-08-23T10:00:53.536Z,9015.00
2022-08-23T10:01:53.559Z,9048.00
2022-08-23T10:02:53.521Z,9028.00
2022-08-23T10:03:53.505Z,8958.00
2022-08-23T10:04:53.641Z,8967.00
2022-08-23T10:05:53.459Z,9002.00
2022-08-23T10:06:53.470Z,8977.00
2022-08-23T10:07:53.439Z,9131.00
2022-08-23T10:08:53.443Z,9179.00
2022-08-23T10:09:53.426Z,9216.00
2022-08-23T10:10:53.421Z,9255.00
2022-08-23T10:11:53.425Z,9282.00
2022-08-23T10:12:53.372Z,9280.00
2022-08-23T10:13:53.362Z,9334.00
2022-08-23T10:14:53.366Z,9389.00
2022-08-23T10:15:53.615Z,9372.00
2022-08-23T10:16:53.337Z,9166.00
2022-08-23T10:17:53.318Z,9557.00
2022-08-23T10:18:53.295Z,9599.00
2022-08-23T10:19:53.284Z,9846.00
2022-08-23T10:20:53.289Z,9853.00
2022-08-23T10:21:53.300Z,9874.00
2022-08-23T10:22:53.246Z,9927.00
2022-08-23T10:23:53.242Z,9929.00
2022-08-23T10:24:53.237Z,9865.00
2022-08-23T10:25:53.208Z,9921.00
2022-08-23T10:26:53.211Z,9951.00
2022-08-23T10:27:53.289Z,10036.00
2022-08-23T10:28:53.191Z,10102.00
2022-08-23T10:29:53.163Z,10104.00
2022-08-23T10:30:53.177Z,10135.00
2022-08-23T10:31:55.752Z,10052.00
2022-08-23T10:32:54.159Z,9928.00
2022-08-23T10:33:53.102Z,9675.00
2022-08-23T10:34:53.106Z,9535.00
2022-08-23T10:35:53.072Z,9530.00
2022-08-23T10:36:53.101Z,9549.00
2022-08-23T10:37:53.071Z,9436.00
2022-08-23T10:38:53.153Z,9429.00
2022-08-23T10:39:53.103Z,9518.00
2022-08-23T10:40:53.014Z,9600.00
2022-08-23T10:41:52.995Z,9648.00
2022-08-23T10:42:53.000Z,9702.00
2022-08-23T10:43:52.975Z,9721.00
2022-08-23T10:44:53.090Z,9757.00
2022-08-23T10:45:56.016Z,9757.00
2022-08-23T10:46:53.989Z,9764.00
2022-08-23T10:47:52.933Z,9756.00
2022-08-23T10:48:52.909Z,9775.00
2022-08-23T10:49:52.890Z,9781.00
2022-08-23T10:50:55.805Z,9849.00
2022-08-23T10:51:52.883Z,9951.00
2022-08-23T10:52:52.860Z,9976.00
2022-08-23T10:53:52.841Z,10019.00
2022-08-23T10:54:52.852Z,10076.00
2022-08-23T10:55:52.931Z,10132.00
2022-08-23T10:56:52.846Z,10219.00
2022-08-23T10:57:52.811Z,10241.00
2022-08-23T10:58:52.783Z,10378.00
2022-08-23T10:59:52.779Z,10381.00
2022-08-23T11:00:52.755Z,10071.00
2022-08-23T11:01:52.820Z,9952.00
2022-08-23T11:02:52.912Z,9247.00
2022-08-23T11:03:52.717Z,9950.00
2022-08-23T11:04:53.041Z,10066.00
2022-08-23T11:05:52.700Z,9958.00
2022-08-23T11:06:52.707Z,10309.00
2022-08-23T11:07:52.657Z,10406.00
2022-08-23T11:08:52.669Z,10377.00
2022-08-23T11:09:52.654Z,10369.00
2022-08-23T11:10:53.719Z,10530.00
2022-08-23T11:11:52.622Z,10611.00
2022-08-23T11:12:52.608Z,10762.00
2022-08-23T11:13:52.581Z,10903.00
2022-08-23T11:14:52.593Z,11049.00
2022-08-23T11:15:52.589Z,11160.00
2022-08-23T11:16:52.570Z,11306.00
2022-08-23T11:17:52.575Z,11489.00
2022-08-23T11:18:52.522Z,11691.00
2022-08-23T11:19:52.534Z,11978.00
2022-08-23T11:20:52.501Z,12318.00
2022-08-23T11:21:52.483Z,12785.00
2022-08-23T11:22:52.489Z,13174.00
2022-08-23T11:23:52.498Z,13430.00
2022-08-23T11:24:52.446Z,13418.00
2022-08-23T11:25:52.426Z,13136.00
2022-08-23T11:26:52.439Z,12956.00
2022-08-23T11:27:52.406Z,13050.00
2022-08-23T11:28:52.410Z,12998.00
2022-08-23T11:29:52.401Z,13794.00
2022-08-23T11:30:52.448Z,14274.00
2022-08-23T11:31:52.373Z,14514.00
2022-08-23T11:32:52.349Z,14457.00
2022-08-23T11:33:52.330Z,14436.00
2022-08-23T11:34:52.343Z,14749.00
2022-08-23T11:35:52.301Z,15521.00
2022-08-23T11:36:52.316Z,16177.00
2022-08-23T11:37:52.295Z,16336.00
2022-08-23T11:38:52.273Z,16062.00
2022-08-23T11:39:52.333Z,14760.00
2022-08-23T11:40:52.247Z,13892.00
2022-08-23T11:41:52.322Z,15897.00
2022-08-23T11:42:52.237Z,16669.00
2022-08-23T11:43:52.219Z,16926.00
2022-08-23T11:44:52.210Z,16931.00
2022-08-23T11:45:52.245Z,17446.00
2022-08-23T11:46:52.165Z,17580.00
2022-08-23T11:47:52.179Z,17382.00
2022-08-23T11:48:52.147Z,18008.00
2022-08-23T11:49:52.137Z,17938.00
2022-08-23T11:50:57.705Z,17992.00
2022-08-23T11:51:53.108Z,17892.00
2022-08-23T11:52:52.102Z,17786.00
2022-08-23T11:53:52.100Z,18248.00
2022-08-23T11:54:52.070Z,18098.00
2022-08-23T11:55:52.061Z,18873.00
2022-08-23T11:56:52.055Z,19704.00
2022-08-23T11:57:52.044Z,19884.00
2022-08-23T11:58:52.011Z,19377.00
2022-08-23T11:59:52.025Z,18993.00
2022-08-23T12:00:51.992Z,19847.00
2022-08-23T12:01:52.013Z,19873.00
2022-08-23T12:02:52.109Z,20182.00
2022-08-23T12:03:52.110Z,20558.00
2022-08-23T12:04:51.961Z,21258.00
2022-08-23T12:05:51.950Z,21938.00
2022-08-23T12:06:52.950Z,21690.00
2022-08-23T12:07:51.959Z,22236.00
2022-08-23T12:08:51.896Z,21988.00
2022-08-23T12:09:51.894Z,22187.00
2022-08-23T12:10:51.881Z,22463.00
2022-08-23T12:11:51.872Z,22075.00
2022-08-23T12:12:51.837Z,22490.00
2022-08-23T12:13:51.839Z,22462.00
2022-08-23T12:14:51.832Z,22802.00
2022-08-23T12:15:51.871Z,22741.00
2022-08-23T12:16:51.804Z,22968.00
2022-08-23T12:17:52.813Z,24143.00
2022-08-23T12:18:51.880Z,41336.00
2022-08-23T12:19:51.779Z,62399.00
2022-08-23T12:20:51.777Z,60072.00
2022-08-23T12:21:51.733Z,55626.00
2022-08-23T12:22:51.735Z,53663.00
2022-08-23T12:23:51.715Z,60382.00
2022-08-23T12:24:52.665Z,54474.00
2022-08-23T12:25:51.699Z,51259.00